sensor_id;sensor_type;location;lat;lon;timestamp;temperature;humidity
16505;HTU21D;8365;51.030;4.696;2023-12-14T00:02:24;10.50;118.99
16505;HTU21D;8365;51.030;4.696;2023-12-14T00:04:54;10.70;118.99
16505;HTU21D;8365;51.030;4.696;2023-12-14T00:07:25;10.64;118.99
16505;HTU21D;8365;51.030;4.696;2023-12-14T00:09:55;10.73;118.99
16505;HTU21D;8365;51.030;4.696;2023-12-14T00:12:26;10.68;118.99
16505;HTU21D;8365;51.030;4.696;2023-12-14T00:14:56;10.79;118.99
16505;HTU21D;8365;51.030;4.696;2023-12-14T00:17:29;10.78;118.99
16505;HTU21D;8365;51.030;4.696;2023-12-14T00:20:00;10.70;118.99
16505;HTU21D;8365;51.030;4.696;2023-12-14T00:22:33;10.64;118.99
16505;HTU21D;8365;51.030;4.696;2023-12-14T00:25:04;10.40;118.99
16505;HTU21D;8365;51.030;4.696;2023-12-14T00:27:35;10.42;118.99
16505;HTU21D;8365;51.030;4.696;2023-12-14T00:30:06;10.59;118.99
16505;HTU21D;8365;51.030;4.696;2023-12-14T00:32:37;10.57;118.99
16505;HTU21D;8365;51.030;4.696;2023-12-14T00:35:07;10.54;118.99
16505;HTU21D;8365;51.030;4.696;2023-12-14T00:37:38;10.60;118.99
16505;HTU21D;8365;51.030;4.696;2023-12-14T00:40:09;10.49;118.99
16505;HTU21D;8365;51.030;4.696;2023-12-14T00:42:41;10.40;118.99
16505;HTU21D;8365;51.030;4.696;2023-12-14T00:45:12;10.52;118.99
16505;HTU21D;8365;51.030;4.696;2023-12-14T00:47:42;10.31;118.99
16505;HTU21D;8365;51.030;4.696;2023-12-14T00:50:13;10.30;118.99
16505;HTU21D;8365;51.030;4.696;2023-12-14T00:52:43;10.14;118.99
16505;HTU21D;8365;51.030;4.696;2023-12-14T00:55:14;10.11;118.99
16505;HTU21D;8365;51.030;4.696;2023-12-14T00:57:44;9.99;118.99
16505;HTU21D;8365;51.030;4.696;2023-12-14T01:00:15;10.05;118.99
16505;HTU21D;8365;51.030;4.696;2023-12-14T01:02:46;10.04;118.99
16505;HTU21D;8365;51.030;4.696;2023-12-14T01:05:16;9.82;118.99
16505;HTU21D;8365;51.030;4.696;2023-12-14T01:07:47;9.69;118.99
16505;HTU21D;8365;51.030;4.696;2023-12-14T01:10:17;9.54;118.99
16505;HTU21D;8365;51.030;4.696;2023-12-14T01:12:48;9.54;118.99
16505;HTU21D;8365;51.030;4.696;2023-12-14T01:15:18;9.50;118.99
16505;HTU21D;8365;51.030;4.696;2023-12-14T01:17:48;9.34;118.99
16505;HTU21D;8365;51.030;4.696;2023-12-14T01:20:19;9.21;118.99
16505;HTU21D;8365;51.030;4.696;2023-12-14T01:22:50;9.26;118.99
16505;HTU21D;8365;51.030;4.696;2023-12-14T01:25:20;9.37;118.99
16505;HTU21D;8365;51.030;4.696;2023-12-14T01:27:50;9.19;118.99
16505;HTU21D;8365;51.030;4.696;2023-12-14T01:30:23;9.11;118.99
16505;HTU21D;8365;51.030;4.696;2023-12-14T01:32:54;9.18;118.99
16505;HTU21D;8365;51.030;4.696;2023-12-14T01:35:24;8.92;118.99
16505;HTU21D;8365;51.030;4.696;2023-12-14T01:37:55;8.80;118.99
16505;HTU21D;8365;51.030;4.696;2023-12-14T01:40:25;8.83;118.99
16505;HTU21D;8365;51.030;4.696;2023-12-14T01:43:09;8.77;118.99
16505;HTU21D;8365;51.030;4.696;2023-12-14T01:45:40;8.66;118.99
16505;HTU21D;8365;51.030;4.696;2023-12-14T01:48:13;8.39;118.99
16505;HTU21D;8365;51.030;4.696;2023-12-14T01:50:43;8.53;118.99
16505;HTU21D;8365;51.030;4.696;2023-12-14T01:53:14;8.56;118.99
16505;HTU21D;8365;51.030;4.696;2023-12-14T01:55:44;8.60;118.99
16505;HTU21D;8365;51.030;4.696;2023-12-14T01:58:15;8.58;118.99
16505;HTU21D;8365;51.030;4.696;2023-12-14T02:00:51;8.57;118.99
16505;HTU21D;8365;51.030;4.696;2023-12-14T02:03:25;8.63;118.99
16505;HTU21D;8365;51.030;4.696;2023-12-14T02:05:56;8.80;118.99
16505;HTU21D;8365;51.030;4.696;2023-12-14T02:08:28;8.77;118.99
16505;HTU21D;8365;51.030;4.696;2023-12-14T02:11:00;8.96;118.99
16505;HTU21D;8365;51.030;4.696;2023-12-14T02:13:31;8.61;118.99
16505;HTU21D;8365;51.030;4.696;2023-12-14T02:16:01;8.63;118.99
16505;HTU21D;8365;51.030;4.696;2023-12-14T02:18:32;8.61;118.99
16505;HTU21D;8365;51.030;4.696;2023-12-14T02:21:02;8.51;118.99
16505;HTU21D;8365;51.030;4.696;2023-12-14T02:23:33;8.43;118.99
16505;HTU21D;8365;51.030;4.696;2023-12-14T02:26:04;8.57;118.99
16505;HTU21D;8365;51.030;4.696;2023-12-14T02:28:34;8.58;118.99
16505;HTU21D;8365;51.030;4.696;2023-12-14T02:31:05;8.44;118.99
16505;HTU21D;8365;51.030;4.696;2023-12-14T02:33:35;8.58;118.99
16505;HTU21D;8365;51.030;4.696;2023-12-14T02:36:09;8.76;118.99
16505;HTU21D;8365;51.030;4.696;2023-12-14T02:38:39;8.86;118.99
16505;HTU21D;8365;51.030;4.696;2023-12-14T02:41:13;8.85;118.99
16505;HTU21D;8365;51.030;4.696;2023-12-14T02:43:43;8.93;118.99
16505;HTU21D;8365;51.030;4.696;2023-12-14T02:46:14;8.76;118.99
16505;HTU21D;8365;51.030;4.696;2023-12-14T02:48:45;8.52;118.99
16505;HTU21D;8365;51.030;4.696;2023-12-14T02:51:16;8.51;118.99
16505;HTU21D;8365;51.030;4.696;2023-12-14T02:53:46;8.72;118.99
16505;HTU21D;8365;51.030;4.696;2023-12-14T02:56:17;8.79;118.99
16505;HTU21D;8365;51.030;4.696;2023-12-14T02:58:47;8.78;118.99
16505;HTU21D;8365;51.030;4.696;2023-12-14T03:01:21;8.83;118.99
16505;HTU21D;8365;51.030;4.696;2023-12-14T03:03:52;8.85;118.99
16505;HTU21D;8365;51.030;4.696;2023-12-14T03:06:22;8.72;118.99
16505;HTU21D;8365;51.030;4.696;2023-12-14T03:08:55;8.45;118.99
16505;HTU21D;8365;51.030;4.696;2023-12-14T03:11:25;8.74;118.99
16505;HTU21D;8365;51.030;4.696;2023-12-14T03:13:56;8.73;118.99
16505;HTU21D;8365;51.030;4.696;2023-12-14T03:16:26;8.49;118.99
16505;HTU21D;8365;51.030;4.696;2023-12-14T03:18:57;8.43;118.99
16505;HTU21D;8365;51.030;4.696;2023-12-14T03:21:27;8.75;118.99
16505;HTU21D;8365;51.030;4.696;2023-12-14T03:23:57;8.55;118.99
16505;HTU21D;8365;51.030;4.696;2023-12-14T03:26:28;8.58;118.99
16505;HTU21D;8365;51.030;4.696;2023-12-14T03:28:58;8.80;118.99
16505;HTU21D;8365;51.030;4.696;2023-12-14T03:31:29;8.49;118.99
16505;HTU21D;8365;51.030;4.696;2023-12-14T03:33:59;8.20;118.99
16505;HTU21D;8365;51.030;4.696;2023-12-14T03:36:32;8.03;118.99
16505;HTU21D;8365;51.030;4.696;2023-12-14T03:39:03;7.83;118.99
16505;HTU21D;8365;51.030;4.696;2023-12-14T03:41:33;8.00;118.99
16505;HTU21D;8365;51.030;4.696;2023-12-14T03:44:04;7.83;118.99
16505;HTU21D;8365;51.030;4.696;2023-12-14T03:46:34;7.85;118.99
16505;HTU21D;8365;51.030;4.696;2023-12-14T03:49:05;7.83;118.99
16505;HTU21D;8365;51.030;4.696;2023-12-14T03:51:35;7.93;118.99
16505;HTU21D;8365;51.030;4.696;2023-12-14T03:54:06;8.07;118.99
16505;HTU21D;8365;51.030;4.696;2023-12-14T03:56:38;8.26;118.99
16505;HTU21D;8365;51.030;4.696;2023-12-14T03:59:09;8.21;118.99
16505;HTU21D;8365;51.030;4.696;2023-12-14T04:01:39;8.22;118.99
16505;HTU21D;8365;51.030;4.696;2023-12-14T04:04:10;8.11;118.99
16505;HTU21D;8365;51.030;4.696;2023-12-14T04:06:41;8.09;118.99
16505;HTU21D;8365;51.030;4.696;2023-12-14T04:09:11;7.92;118.99
16505;HTU21D;8365;51.030;4.696;2023-12-14T04:11:42;8.04;118.99
16505;HTU21D;8365;51.030;4.696;2023-12-14T04:14:14;7.94;118.99
16505;HTU21D;8365;51.030;4.696;2023-12-14T04:16:45;7.85;118.99
16505;HTU21D;8365;51.030;4.696;2023-12-14T04:19:15;7.78;118.99
16505;HTU21D;8365;51.030;4.696;2023-12-14T04:21:46;7.64;118.99
16505;HTU21D;8365;51.030;4.696;2023-12-14T04:24:16;7.92;118.99
16505;HTU21D;8365;51.030;4.696;2023-12-14T04:26:48;8.06;118.99
16505;HTU21D;8365;51.030;4.696;2023-12-14T04:29:18;8.01;118.99
16505;HTU21D;8365;51.030;4.696;2023-12-14T04:31:51;7.97;118.99
16505;HTU21D;8365;51.030;4.696;2023-12-14T04:34:25;7.97;118.99
16505;HTU21D;8365;51.030;4.696;2023-12-14T04:36:56;7.65;118.99
16505;HTU21D;8365;51.030;4.696;2023-12-14T04:39:29;7.86;118.99
16505;HTU21D;8365;51.030;4.696;2023-12-14T04:41:59;7.98;118.99
16505;HTU21D;8365;51.030;4.696;2023-12-14T04:44:32;7.89;118.99
16505;HTU21D;8365;51.030;4.696;2023-12-14T04:47:03;7.93;118.99
16505;HTU21D;8365;51.030;4.696;2023-12-14T04:49:36;7.98;118.99
16505;HTU21D;8365;51.030;4.696;2023-12-14T04:52:06;7.86;118.99
16505;HTU21D;8365;51.030;4.696;2023-12-14T04:54:36;7.68;118.99
16505;HTU21D;8365;51.030;4.696;2023-12-14T04:57:10;7.73;118.99
16505;HTU21D;8365;51.030;4.696;2023-12-14T04:59:44;7.62;118.99
16505;HTU21D;8365;51.030;4.696;2023-12-14T05:02:14;7.65;118.99
16505;HTU21D;8365;51.030;4.696;2023-12-14T05:04:44;7.45;118.99
16505;HTU21D;8365;51.030;4.696;2023-12-14T05:07:15;7.60;118.99
16505;HTU21D;8365;51.030;4.696;2023-12-14T05:09:48;7.57;118.99
16505;HTU21D;8365;51.030;4.696;2023-12-14T05:12:18;7.53;118.99
16505;HTU21D;8365;51.030;4.696;2023-12-14T05:14:49;7.48;118.99
16505;HTU21D;8365;51.030;4.696;2023-12-14T05:17:19;7.60;118.99
16505;HTU21D;8365;51.030;4.696;2023-12-14T05:19:50;7.57;118.99
16505;HTU21D;8365;51.030;4.696;2023-12-14T05:22:22;7.46;118.99
16505;HTU21D;8365;51.030;4.696;2023-12-14T05:24:53;7.46;118.99
16505;HTU21D;8365;51.030;4.696;2023-12-14T05:27:23;7.42;118.99
16505;HTU21D;8365;51.030;4.696;2023-12-14T05:29:55;7.49;118.99
16505;HTU21D;8365;51.030;4.696;2023-12-14T05:32:25;7.54;118.99
16505;HTU21D;8365;51.030;4.696;2023-12-14T05:34:56;7.54;118.99
16505;HTU21D;8365;51.030;4.696;2023-12-14T05:37:26;7.68;118.99
16505;HTU21D;8365;51.030;4.696;2023-12-14T05:39:57;7.64;118.99
16505;HTU21D;8365;51.030;4.696;2023-12-14T05:42:27;7.56;118.99
16505;HTU21D;8365;51.030;4.696;2023-12-14T05:44:58;7.74;118.99
16505;HTU21D;8365;51.030;4.696;2023-12-14T05:47:28;7.77;118.99
16505;HTU21D;8365;51.030;4.696;2023-12-14T05:50:04;7.79;118.99
16505;HTU21D;8365;51.030;4.696;2023-12-14T05:52:35;7.76;118.99
16505;HTU21D;8365;51.030;4.696;2023-12-14T05:55:07;7.59;118.99
16505;HTU21D;8365;51.030;4.696;2023-12-14T05:57:38;7.46;118.99
16505;HTU21D;8365;51.030;4.696;2023-12-14T06:00:09;7.48;118.99
16505;HTU21D;8365;51.030;4.696;2023-12-14T06:02:40;7.61;118.99
16505;HTU21D;8365;51.030;4.696;2023-12-14T06:05:11;7.82;118.99
16505;HTU21D;8365;51.030;4.696;2023-12-14T06:07:41;7.84;118.99
16505;HTU21D;8365;51.030;4.696;2023-12-14T06:10:12;7.90;118.99
16505;HTU21D;8365;51.030;4.696;2023-12-14T06:12:42;7.88;118.99
16505;HTU21D;8365;51.030;4.696;2023-12-14T06:15:15;7.94;118.99
16505;HTU21D;8365;51.030;4.696;2023-12-14T06:17:46;7.97;118.99
16505;HTU21D;8365;51.030;4.696;2023-12-14T06:20:16;8.11;118.99
16505;HTU21D;8365;51.030;4.696;2023-12-14T06:22:47;8.11;118.99
16505;HTU21D;8365;51.030;4.696;2023-12-14T06:25:17;7.94;118.99
16505;HTU21D;8365;51.030;4.696;2023-12-14T06:27:48;8.07;118.99
16505;HTU21D;8365;51.030;4.696;2023-12-14T06:30:19;8.28;118.99
16505;HTU21D;8365;51.030;4.696;2023-12-14T06:32:50;8.11;118.99
16505;HTU21D;8365;51.030;4.696;2023-12-14T06:35:20;8.19;118.99
16505;HTU21D;8365;51.030;4.696;2023-12-14T06:37:51;8.29;118.99
16505;HTU21D;8365;51.030;4.696;2023-12-14T06:40:21;8.38;118.99
16505;HTU21D;8365;51.030;4.696;2023-12-14T06:42:52;8.47;118.99
16505;HTU21D;8365;51.030;4.696;2023-12-14T06:45:24;8.42;118.99
16505;HTU21D;8365;51.030;4.696;2023-12-14T06:47:55;8.21;118.99
16505;HTU21D;8365;51.030;4.696;2023-12-14T06:50:25;8.06;118.99
16505;HTU21D;8365;51.030;4.696;2023-12-14T06:52:56;8.07;118.99
16505;HTU21D;8365;51.030;4.696;2023-12-14T06:55:26;8.06;118.99
16505;HTU21D;8365;51.030;4.696;2023-12-14T06:57:57;7.93;118.99
16505;HTU21D;8365;51.030;4.696;2023-12-14T07:00:27;7.86;118.99
16505;HTU21D;8365;51.030;4.696;2023-12-14T07:02:59;7.99;118.99
16505;HTU21D;8365;51.030;4.696;2023-12-14T07:05:32;8.04;118.99
16505;HTU21D;8365;51.030;4.696;2023-12-14T07:08:03;7.96;118.99
16505;HTU21D;8365;51.030;4.696;2023-12-14T07:10:36;7.74;118.99
16505;HTU21D;8365;51.030;4.696;2023-12-14T07:13:06;7.85;118.99
16505;HTU21D;8365;51.030;4.696;2023-12-14T07:15:39;7.73;118.99
16505;HTU21D;8365;51.030;4.696;2023-12-14T07:18:10;7.81;118.99
16505;HTU21D;8365;51.030;4.696;2023-12-14T07:20:40;7.60;118.99
16505;HTU21D;8365;51.030;4.696;2023-12-14T07:23:11;7.60;118.99
16505;HTU21D;8365;51.030;4.696;2023-12-14T07:25:41;7.71;118.99
16505;HTU21D;8365;51.030;4.696;2023-12-14T07:28:12;7.71;118.99
16505;HTU21D;8365;51.030;4.696;2023-12-14T07:30:42;7.73;118.99
16505;HTU21D;8365;51.030;4.696;2023-12-14T07:33:14;7.58;118.99
16505;HTU21D;8365;51.030;4.696;2023-12-14T07:35:44;7.57;118.99
16505;HTU21D;8365;51.030;4.696;2023-12-14T07:38:15;7.60;118.99
16505;HTU21D;8365;51.030;4.696;2023-12-14T07:40:46;7.53;118.99
16505;HTU21D;8365;51.030;4.696;2023-12-14T07:43:20;7.33;118.99
16505;HTU21D;8365;51.030;4.696;2023-12-14T07:45:50;7.26;118.99
16505;HTU21D;8365;51.030;4.696;2023-12-14T07:48:21;7.17;118.99
16505;HTU21D;8365;51.030;4.696;2023-12-14T07:50:51;6.87;118.99
16505;HTU21D;8365;51.030;4.696;2023-12-14T07:53:22;6.74;118.99
16505;HTU21D;8365;51.030;4.696;2023-12-14T07:55:53;6.76;118.99
16505;HTU21D;8365;51.030;4.696;2023-12-14T07:58:23;6.81;118.99
16505;HTU21D;8365;51.030;4.696;2023-12-14T08:00:56;6.75;118.99
16505;HTU21D;8365;51.030;4.696;2023-12-14T08:03:26;6.85;118.99
16505;HTU21D;8365;51.030;4.696;2023-12-14T08:05:57;6.70;118.99
16505;HTU21D;8365;51.030;4.696;2023-12-14T08:08:27;6.71;118.99
16505;HTU21D;8365;51.030;4.696;2023-12-14T08:10:58;6.64;118.99
16505;HTU21D;8365;51.030;4.696;2023-12-14T08:13:28;6.75;118.99
16505;HTU21D;8365;51.030;4.696;2023-12-14T08:15:58;6.85;118.99
16505;HTU21D;8365;51.030;4.696;2023-12-14T08:18:31;7.15;118.99
16505;HTU21D;8365;51.030;4.696;2023-12-14T08:21:02;7.38;118.99
16505;HTU21D;8365;51.030;4.696;2023-12-14T08:23:33;7.32;118.99
16505;HTU21D;8365;51.030;4.696;2023-12-14T08:26:03;7.42;118.99
16505;HTU21D;8365;51.030;4.696;2023-12-14T08:28:34;7.47;118.99
16505;HTU21D;8365;51.030;4.696;2023-12-14T08:31:05;7.59;118.99
16505;HTU21D;8365;51.030;4.696;2023-12-14T08:33:37;7.88;118.99
16505;HTU21D;8365;51.030;4.696;2023-12-14T08:36:08;8.01;118.99
16505;HTU21D;8365;51.030;4.696;2023-12-14T08:38:39;8.19;118.99
16505;HTU21D;8365;51.030;4.696;2023-12-14T08:41:15;8.37;118.99
16505;HTU21D;8365;51.030;4.696;2023-12-14T08:43:45;8.21;118.99
16505;HTU21D;8365;51.030;4.696;2023-12-14T08:46:16;8.31;118.99
16505;HTU21D;8365;51.030;4.696;2023-12-14T08:48:47;8.73;118.99
16505;HTU21D;8365;51.030;4.696;2023-12-14T08:51:17;8.86;118.99
16505;HTU21D;8365;51.030;4.696;2023-12-14T08:53:49;8.81;118.99
16505;HTU21D;8365;51.030;4.696;2023-12-14T08:56:19;8.87;118.99
16505;HTU21D;8365;51.030;4.696;2023-12-14T08:58:50;8.71;118.99
16505;HTU21D;8365;51.030;4.696;2023-12-14T09:01:21;8.58;118.99
16505;HTU21D;8365;51.030;4.696;2023-12-14T09:03:53;8.59;118.99
16505;HTU21D;8365;51.030;4.696;2023-12-14T09:06:24;8.46;118.99
16505;HTU21D;8365;51.030;4.696;2023-12-14T09:08:54;8.30;118.99
16505;HTU21D;8365;51.030;4.696;2023-12-14T09:11:25;8.63;118.99
16505;HTU21D;8365;51.030;4.696;2023-12-14T09:13:55;8.73;118.99
16505;HTU21D;8365;51.030;4.696;2023-12-14T09:16:26;8.73;118.99
16505;HTU21D;8365;51.030;4.696;2023-12-14T09:18:57;9.15;118.99
16505;HTU21D;8365;51.030;4.696;2023-12-14T09:21:27;9.83;118.99
16505;HTU21D;8365;51.030;4.696;2023-12-14T09:23:58;10.28;118.99
16505;HTU21D;8365;51.030;4.696;2023-12-14T09:26:28;10.24;118.99
16505;HTU21D;8365;51.030;4.696;2023-12-14T09:28:59;10.93;118.99
16505;HTU21D;8365;51.030;4.696;2023-12-14T09:31:29;10.89;118.99
16505;HTU21D;8365;51.030;4.696;2023-12-14T09:34:02;11.43;118.99
16505;HTU21D;8365;51.030;4.696;2023-12-14T09:36:32;11.33;118.99
16505;HTU21D;8365;51.030;4.696;2023-12-14T09:39:03;11.62;118.99
16505;HTU21D;8365;51.030;4.696;2023-12-14T09:41:33;11.72;118.99
16505;HTU21D;8365;51.030;4.696;2023-12-14T09:44:05;12.22;118.99
16505;HTU21D;8365;51.030;4.696;2023-12-14T09:46:37;12.00;118.99
16505;HTU21D;8365;51.030;4.696;2023-12-14T09:49:09;12.61;118.99
16505;HTU21D;8365;51.030;4.696;2023-12-14T09:51:40;12.30;118.99
16505;HTU21D;8365;51.030;4.696;2023-12-14T09:54:13;11.68;118.99
16505;HTU21D;8365;51.030;4.696;2023-12-14T09:56:47;11.85;118.09
16505;HTU21D;8365;51.030;4.696;2023-12-14T09:59:17;11.89;118.60
16505;HTU21D;8365;51.030;4.696;2023-12-14T10:01:48;12.22;118.99
16505;HTU21D;8365;51.030;4.696;2023-12-14T10:04:19;12.40;117.54
16505;HTU21D;8365;51.030;4.696;2023-12-14T10:06:53;12.60;117.18
16505;HTU21D;8365;51.030;4.696;2023-12-14T10:09:25;12.60;114.84
16505;HTU21D;8365;51.030;4.696;2023-12-14T10:12:11;12.46;114.29
16505;HTU21D;8365;51.030;4.696;2023-12-14T10:14:41;12.35;114.72
16505;HTU21D;8365;51.030;4.696;2023-12-14T10:17:20;12.37;117.21
16505;HTU21D;8365;51.030;4.696;2023-12-14T10:19:51;12.61;115.88
16505;HTU21D;8365;51.030;4.696;2023-12-14T10:22:21;12.30;116.99
16505;HTU21D;8365;51.030;4.696;2023-12-14T10:24:54;11.73;118.21
16505;HTU21D;8365;51.030;4.696;2023-12-14T10:27:26;11.77;117.17
16505;HTU21D;8365;51.030;4.696;2023-12-14T10:29:57;11.29;118.99
16505;HTU21D;8365;51.030;4.696;2023-12-14T10:32:28;11.33;118.99
16505;HTU21D;8365;51.030;4.696;2023-12-14T10:34:59;11.28;118.99
16505;HTU21D;8365;51.030;4.696;2023-12-14T10:37:32;11.32;118.99
16505;HTU21D;8365;51.030;4.696;2023-12-14T10:40:05;11.09;118.99
16505;HTU21D;8365;51.030;4.696;2023-12-14T10:42:39;11.07;118.99
16505;HTU21D;8365;51.030;4.696;2023-12-14T10:45:15;10.87;118.99
16505;HTU21D;8365;51.030;4.696;2023-12-14T10:47:47;10.88;118.99
16505;HTU21D;8365;51.030;4.696;2023-12-14T10:50:21;10.81;118.99
16505;HTU21D;8365;51.030;4.696;2023-12-14T10:52:51;10.57;118.99
16505;HTU21D;8365;51.030;4.696;2023-12-14T10:55:43;10.23;118.99
16505;HTU21D;8365;51.030;4.696;2023-12-14T10:58:14;9.82;118.99
16505;HTU21D;8365;51.030;4.696;2023-12-14T11:00:47;9.85;118.99
16505;HTU21D;8365;51.030;4.696;2023-12-14T11:03:33;10.11;118.99
16505;HTU21D;8365;51.030;4.696;2023-12-14T11:06:36;10.27;118.99
16505;HTU21D;8365;51.030;4.696;2023-12-14T11:09:08;10.34;118.99
16505;HTU21D;8365;51.030;4.696;2023-12-14T11:14:26;10.84;118.99
16505;HTU21D;8365;51.030;4.696;2023-12-14T11:17:06;11.25;118.99
16505;HTU21D;8365;51.030;4.696;2023-12-14T11:19:36;11.45;118.99
16505;HTU21D;8365;51.030;4.696;2023-12-14T11:24:41;11.19;118.99
16505;HTU21D;8365;51.030;4.696;2023-12-14T11:27:13;11.12;118.99
16505;HTU21D;8365;51.030;4.696;2023-12-14T11:29:43;10.92;118.99
16505;HTU21D;8365;51.030;4.696;2023-12-14T11:32:14;11.08;118.99
16505;HTU21D;8365;51.030;4.696;2023-12-14T11:34:46;10.89;118.99
16505;HTU21D;8365;51.030;4.696;2023-12-14T11:37:19;10.97;118.99
16505;HTU21D;8365;51.030;4.696;2023-12-14T11:39:52;10.80;118.99
16505;HTU21D;8365;51.030;4.696;2023-12-14T11:42:23;10.46;118.99
16505;HTU21D;8365;51.030;4.696;2023-12-14T11:44:55;10.35;118.99
16505;HTU21D;8365;51.030;4.696;2023-12-14T11:47:26;10.52;118.99
16505;HTU21D;8365;51.030;4.696;2023-12-14T11:49:56;10.36;118.99
16505;HTU21D;8365;51.030;4.696;2023-12-14T11:52:29;10.08;118.99
16505;HTU21D;8365;51.030;4.696;2023-12-14T11:55:00;10.01;118.99
16505;HTU21D;8365;51.030;4.696;2023-12-14T11:57:31;10.09;118.99
16505;HTU21D;8365;51.030;4.696;2023-12-14T12:00:04;9.80;118.99
16505;HTU21D;8365;51.030;4.696;2023-12-14T12:02:39;9.84;118.99
16505;HTU21D;8365;51.030;4.696;2023-12-14T12:05:13;9.86;118.99
16505;HTU21D;8365;51.030;4.696;2023-12-14T12:07:48;9.74;118.99
16505;HTU21D;8365;51.030;4.696;2023-12-14T12:10:19;9.69;118.99
16505;HTU21D;8365;51.030;4.696;2023-12-14T12:12:58;9.42;118.99
16505;HTU21D;8365;51.030;4.696;2023-12-14T12:15:29;9.21;118.99
16505;HTU21D;8365;51.030;4.696;2023-12-14T12:18:06;9.36;118.99
16505;HTU21D;8365;51.030;4.696;2023-12-14T12:20:38;9.35;118.99
16505;HTU21D;8365;51.030;4.696;2023-12-14T12:23:08;9.27;118.99
16505;HTU21D;8365;51.030;4.696;2023-12-14T12:25:39;9.23;118.99
16505;HTU21D;8365;51.030;4.696;2023-12-14T12:28:09;9.31;118.99
16505;HTU21D;8365;51.030;4.696;2023-12-14T12:30:40;9.10;118.99
16505;HTU21D;8365;51.030;4.696;2023-12-14T12:33:12;9.10;118.99
16505;HTU21D;8365;51.030;4.696;2023-12-14T12:35:42;9.10;118.99
16505;HTU21D;8365;51.030;4.696;2023-12-14T12:38:13;9.08;118.99
16505;HTU21D;8365;51.030;4.696;2023-12-14T12:40:44;9.07;118.99
16505;HTU21D;8365;51.030;4.696;2023-12-14T12:43:15;9.16;118.99
16505;HTU21D;8365;51.030;4.696;2023-12-14T12:45:45;8.96;118.99
16505;HTU21D;8365;51.030;4.696;2023-12-14T12:48:16;8.98;118.99
16505;HTU21D;8365;51.030;4.696;2023-12-14T12:50:46;8.74;118.99
16505;HTU21D;8365;51.030;4.696;2023-12-14T12:53:17;8.58;118.99
16505;HTU21D;8365;51.030;4.696;2023-12-14T12:55:47;8.75;118.99
16505;HTU21D;8365;51.030;4.696;2023-12-14T12:58:20;8.58;118.99
16505;HTU21D;8365;51.030;4.696;2023-12-14T13:00:56;8.55;118.99
16505;HTU21D;8365;51.030;4.696;2023-12-14T13:03:29;8.43;118.99
16505;HTU21D;8365;51.030;4.696;2023-12-14T13:06:00;8.38;118.99
16505;HTU21D;8365;51.030;4.696;2023-12-14T13:08:33;8.42;118.99
16505;HTU21D;8365;51.030;4.696;2023-12-14T13:11:05;8.39;118.99
16505;HTU21D;8365;51.030;4.696;2023-12-14T13:13:36;8.33;118.99
16505;HTU21D;8365;51.030;4.696;2023-12-14T13:16:07;8.39;118.99
16505;HTU21D;8365;51.030;4.696;2023-12-14T13:18:37;8.45;118.99
16505;HTU21D;8365;51.030;4.696;2023-12-14T13:21:08;8.61;118.99
16505;HTU21D;8365;51.030;4.696;2023-12-14T13:23:38;8.61;118.99
16505;HTU21D;8365;51.030;4.696;2023-12-14T13:26:09;8.74;118.99
16505;HTU21D;8365;51.030;4.696;2023-12-14T13:28:39;8.81;118.99
16505;HTU21D;8365;51.030;4.696;2023-12-14T13:31:10;8.92;118.99
16505;HTU21D;8365;51.030;4.696;2023-12-14T13:33:40;8.59;118.99
16505;HTU21D;8365;51.030;4.696;2023-12-14T13:36:11;8.60;118.99
16505;HTU21D;8365;51.030;4.696;2023-12-14T13:38:42;8.72;118.99
16505;HTU21D;8365;51.030;4.696;2023-12-14T13:41:13;8.67;118.99
16505;HTU21D;8365;51.030;4.696;2023-12-14T13:43:43;8.68;118.99
16505;HTU21D;8365;51.030;4.696;2023-12-14T13:46:16;8.86;118.99
16505;HTU21D;8365;51.030;4.696;2023-12-14T13:48:46;8.67;118.99
16505;HTU21D;8365;51.030;4.696;2023-12-14T13:51:17;8.79;118.99
16505;HTU21D;8365;51.030;4.696;2023-12-14T13:53:47;8.67;118.99
16505;HTU21D;8365;51.030;4.696;2023-12-14T13:56:18;8.60;118.99
16505;HTU21D;8365;51.030;4.696;2023-12-14T13:58:48;8.80;118.99
16505;HTU21D;8365;51.030;4.696;2023-12-14T14:01:19;8.78;118.99
16505;HTU21D;8365;51.030;4.696;2023-12-14T14:03:50;9.04;118.99
16505;HTU21D;8365;51.030;4.696;2023-12-14T14:06:20;8.96;118.99
16505;HTU21D;8365;51.030;4.696;2023-12-14T14:08:53;8.90;118.99
16505;HTU21D;8365;51.030;4.696;2023-12-14T14:11:25;8.61;118.99
16505;HTU21D;8365;51.030;4.696;2023-12-14T14:13:55;8.38;118.99
16505;HTU21D;8365;51.030;4.696;2023-12-14T14:16:26;8.52;118.99
16505;HTU21D;8365;51.030;4.696;2023-12-14T14:18:59;8.51;118.99
16505;HTU21D;8365;51.030;4.696;2023-12-14T14:21:32;8.79;118.99
16505;HTU21D;8365;51.030;4.696;2023-12-14T14:24:02;8.68;118.99
16505;HTU21D;8365;51.030;4.696;2023-12-14T14:26:33;8.52;118.99
16505;HTU21D;8365;51.030;4.696;2023-12-14T14:29:03;8.68;118.99
16505;HTU21D;8365;51.030;4.696;2023-12-14T14:31:34;8.80;118.99
16505;HTU21D;8365;51.030;4.696;2023-12-14T14:34:04;8.90;118.99
16505;HTU21D;8365;51.030;4.696;2023-12-14T14:36:37;8.81;118.99
16505;HTU21D;8365;51.030;4.696;2023-12-14T14:39:07;9.04;118.99
16505;HTU21D;8365;51.030;4.696;2023-12-14T14:41:38;8.97;118.99
16505;HTU21D;8365;51.030;4.696;2023-12-14T14:44:09;8.87;118.99
16505;HTU21D;8365;51.030;4.696;2023-12-14T14:46:39;8.88;118.99
16505;HTU21D;8365;51.030;4.696;2023-12-14T14:49:10;9.01;118.99
16505;HTU21D;8365;51.030;4.696;2023-12-14T14:51:40;9.17;118.99
16505;HTU21D;8365;51.030;4.696;2023-12-14T14:54:11;8.97;118.99
16505;HTU21D;8365;51.030;4.696;2023-12-14T14:56:42;8.91;118.99
16505;HTU21D;8365;51.030;4.696;2023-12-14T14:59:13;9.09;118.99
16505;HTU21D;8365;51.030;4.696;2023-12-14T15:01:45;9.00;118.99
16505;HTU21D;8365;51.030;4.696;2023-12-14T15:04:17;8.92;118.99
16505;HTU21D;8365;51.030;4.696;2023-12-14T15:06:48;9.04;118.99
16505;HTU21D;8365;51.030;4.696;2023-12-14T15:09:19;9.19;118.99
16505;HTU21D;8365;51.030;4.696;2023-12-14T15:11:49;9.21;118.99
16505;HTU21D;8365;51.030;4.696;2023-12-14T15:14:20;9.23;118.99
16505;HTU21D;8365;51.030;4.696;2023-12-14T15:16:50;9.23;118.99
16505;HTU21D;8365;51.030;4.696;2023-12-14T15:19:21;9.29;118.99
16505;HTU21D;8365;51.030;4.696;2023-12-14T15:21:51;9.21;118.99
16505;HTU21D;8365;51.030;4.696;2023-12-14T15:24:22;9.22;118.99
16505;HTU21D;8365;51.030;4.696;2023-12-14T15:26:52;9.37;118.99
16505;HTU21D;8365;51.030;4.696;2023-12-14T15:29:23;9.40;118.99
16505;HTU21D;8365;51.030;4.696;2023-12-14T15:31:53;9.27;118.99
16505;HTU21D;8365;51.030;4.696;2023-12-14T15:34:24;9.29;118.99
16505;HTU21D;8365;51.030;4.696;2023-12-14T15:36:54;9.34;118.99
16505;HTU21D;8365;51.030;4.696;2023-12-14T15:39:25;9.25;118.99
16505;HTU21D;8365;51.030;4.696;2023-12-14T15:41:55;9.19;118.99
16505;HTU21D;8365;51.030;4.696;2023-12-14T15:44:26;9.17;118.99
16505;HTU21D;8365;51.030;4.696;2023-12-14T15:46:58;9.18;118.99
16505;HTU21D;8365;51.030;4.696;2023-12-14T15:49:30;9.20;118.99
16505;HTU21D;8365;51.030;4.696;2023-12-14T15:52:00;9.12;118.99
16505;HTU21D;8365;51.030;4.696;2023-12-14T15:54:33;9.24;118.99
16505;HTU21D;8365;51.030;4.696;2023-12-14T15:57:04;9.33;118.99
16505;HTU21D;8365;51.030;4.696;2023-12-14T15:59:34;9.04;118.99